Aeroporto :
LOGIN :

Iscrizione | Disclaimer

   EN    FR    IT 

 










Sommario :    VFR   VFR Marginale   IFR   IFR Intensivo   IFR Molto Intensivo
Visibilità : 
Base nubi : 
>= 8 km
>= 3000ft
5 / 8 km
1000 / 3000 ft
1500m / 5 km
500 / 1000 ft
800 / 1500m
200 / 500 ft
< 800m
< 200 ft
Simboli :   Temporali  Nebbia  Neve Forte  Precipitazioni Forti  Vento > 20 kt
SIGMETs :   Varie  Temporali  Ghiacco  Turbolenza  Onda orograficha  Ceneri Vulcaniche






- Altitudine del aeroporto : 364 ft


LFAQ - Albert Bray

ULTIMO METAR :
  • 260500Z AUTO 12006KT 9999 4000 -RA ///CB 13/12 Q1013

METARs OBSOLETI :
  • 260430Z AUTO 10005KT CAVOK 13/12 Q1013
  • 260400Z AUTO 10006KT 9999 SCT046 BKN052 BKN084 13/12 Q1013
  • 260330Z AUTO 11007KT 9000 FEW038/// SCT094/// OVC110/// ///TCU 13/13 Q1013
  • 260300Z AUTO 21004KT 130V250 5000 -RA BR SCT033/// BKN039/// BKN045/// ///CB 14/13 Q1014
  • 260230Z AUTO 09006KT 070V130 7000 -RA SCT046/// BKN070/// OVC084/// ///CB 14/12 Q1013
  • 260200Z AUTO 06004KT 9999 BKN045/// OVC068/// ///CB 14/13 Q1014
  • 260130Z AUTO 11004KT 9999 -RA BKN048/// BKN054/// BKN076/// ///CB 14/12 Q1014
  • 260100Z AUTO 13006KT 9999 ///CB 14/11 Q1014
  • 260030Z AUTO 13006KT CAVOK 14/12 Q1014

Previsioni scadute.



MetMap, La meteo Aeronautica in un colpo d'occhio ! - Copyright ORBIFLY Dicembre 2007 - Disclaimer

ORBIFLY MET'MAP TEAM :

Programmazione e sviluppo : Alexandra Zaïnal
Concezione : Baudouin d'Aumeries
Supporto tecnico e logistico : Manuel Goepfert
Aiuto : Marc-Olivier Méhu
Aiuto per la traduzione : Arnaldo La Scala




FONTI E CREDITI :

   NOAA